createdAt,value
2022-08-19T00:00:15.554Z,8.85
2022-08-19T00:02:17.164Z,9.85
2022-08-19T00:04:20.791Z,8.68
2022-08-19T00:06:22.378Z,8.95
2022-08-19T00:08:23.912Z,8.73
2022-08-19T00:10:25.586Z,8.65
2022-08-19T00:12:28.528Z,8.43
2022-08-19T00:14:30.390Z,8.00
2022-08-19T00:16:31.906Z,11.07
2022-08-19T00:18:33.739Z,8.77
2022-08-19T00:20:35.416Z,9.13
2022-08-19T00:22:37.138Z,9.52
2022-08-19T00:24:38.928Z,9.57
2022-08-19T00:26:41.521Z,8.93
2022-08-19T00:28:44.471Z,9.35
2022-08-19T00:30:46.106Z,10.20
2022-08-19T00:32:47.753Z,9.45
2022-08-19T00:34:49.340Z,9.82
2022-08-19T00:36:50.993Z,9.98
2022-08-19T00:38:52.813Z,10.13
2022-08-19T00:40:54.819Z,9.68
2022-08-19T00:42:56.514Z,9.32
2022-08-19T00:44:59.464Z,9.70
2022-08-19T00:47:01.249Z,9.65
2022-08-19T00:49:15.616Z,9.82
2022-08-19T00:51:17.204Z,9.82
2022-08-19T00:53:23.034Z,9.52
2022-08-19T00:55:26.844Z,9.65
2022-08-19T00:57:32.978Z,9.55
2022-08-19T01:00:00.833Z,9.85
2022-08-19T01:02:00.505Z,9.70
2022-08-19T01:04:02.170Z,9.93
2022-08-19T01:06:03.954Z,10.40
2022-08-19T01:08:07.137Z,10.30
2022-08-19T01:10:11.074Z,10.43
2022-08-19T01:12:12.873Z,10.38
2022-08-19T01:14:15.581Z,9.80
2022-08-19T01:16:20.122Z,10.45
2022-08-19T01:18:24.586Z,10.13
2022-08-19T01:20:26.685Z,10.23
2022-08-19T01:22:33.623Z,9.88
2022-08-19T01:24:35.845Z,10.15
2022-08-19T01:26:51.121Z,10.50
2022-08-19T01:28:57.422Z,9.63
2022-08-19T01:31:08.013Z,10.38
2022-08-19T01:33:10.064Z,10.23
2022-08-19T01:35:13.481Z,10.63
2022-08-19T01:37:15.839Z,10.68
2022-08-19T01:39:30.131Z,11.75
2022-08-19T01:41:31.777Z,11.52
2022-08-19T01:43:33.926Z,11.10
2022-08-19T01:45:36.410Z,10.68
2022-08-19T01:47:38.470Z,10.68
2022-08-19T01:49:40.152Z,10.95
2022-08-19T01:51:41.819Z,10.82
2022-08-19T01:53:43.449Z,10.30
2022-08-19T01:55:47.391Z,10.65
2022-08-19T01:57:53.186Z,11.15
2022-08-19T01:59:54.765Z,10.20
2022-08-19T02:01:56.320Z,10.55
2022-08-19T02:03:58.002Z,10.88
2022-08-19T02:06:01.129Z,11.05
2022-08-19T02:08:03.109Z,10.63
2022-08-19T02:10:06.634Z,10.35
2022-08-19T02:12:15.463Z,11.07
2022-08-19T02:14:17.053Z,12.52
2022-08-19T02:16:18.826Z,11.40
2022-08-19T02:18:20.381Z,11.55
2022-08-19T02:20:21.867Z,10.73
2022-08-19T02:22:23.859Z,11.40
2022-08-19T02:24:25.653Z,10.52
2022-08-19T02:26:27.315Z,11.35
2022-08-19T02:28:30.411Z,11.35
2022-08-19T02:30:32.043Z,11.77
2022-08-19T02:32:33.595Z,11.43
2022-08-19T02:34:46.344Z,11.40
2022-08-19T02:36:51.635Z,12.48
2022-08-19T02:38:54.529Z,11.05
2022-08-19T02:40:59.316Z,10.85
2022-08-19T02:43:01.528Z,10.95
2022-08-19T02:45:05.341Z,10.43
2022-08-19T02:47:07.332Z,10.38
2022-08-19T02:49:09.282Z,9.25
2022-08-19T02:51:17.311Z,10.48
2022-08-19T02:53:18.901Z,10.13
2022-08-19T02:55:20.533Z,9.52
2022-08-19T02:57:22.074Z,10.50
2022-08-19T02:59:23.628Z,9.95
2022-08-19T03:01:28.854Z,8.95
2022-08-19T03:03:30.574Z,9.85
2022-08-19T03:05:55.947Z,9.02
2022-08-19T03:07:53.710Z,10.32
2022-08-19T03:09:55.232Z,9.88
2022-08-19T03:11:57.075Z,10.38
2022-08-19T03:14:00.040Z,9.77
2022-08-19T03:16:05.569Z,10.13
2022-08-19T03:18:08.696Z,10.40
2022-08-19T03:20:11.123Z,9.68
2022-08-19T03:22:12.669Z,10.25
2022-08-19T03:24:15.430Z,9.80
2022-08-19T03:26:17.388Z,10.27
2022-08-19T03:28:18.939Z,9.88
2022-08-19T03:30:23.312Z,10.45
2022-08-19T03:32:32.440Z,10.48
2022-08-19T03:34:38.226Z,10.60
2022-08-19T03:36:40.141Z,10.70
2022-08-19T03:38:44.084Z,11.07
2022-08-19T03:40:45.611Z,11.40
2022-08-19T03:42:48.915Z,12.25
2022-08-19T03:44:51.145Z,11.82
2022-08-19T03:46:54.732Z,12.80
2022-08-19T03:48:58.756Z,12.85
2022-08-19T03:51:02.028Z,12.52
2022-08-19T03:53:03.576Z,13.98
2022-08-19T03:55:06.561Z,12.73
2022-08-19T03:57:08.118Z,16.05
2022-08-19T03:59:12.194Z,16.10
2022-08-19T04:01:17.132Z,16.10
2022-08-19T04:03:18.816Z,15.07
2022-08-19T04:05:20.360Z,13.80
2022-08-19T04:07:27.808Z,14.30
2022-08-19T04:09:29.391Z,13.13
2022-08-19T04:11:43.528Z,12.18
2022-08-19T04:13:46.034Z,11.80
2022-08-19T04:15:47.697Z,12.25
2022-08-19T04:17:49.432Z,12.20
2022-08-19T04:19:51.083Z,12.07
2022-08-19T04:21:55.224Z,11.73
2022-08-19T04:23:58.710Z,12.27
2022-08-19T04:26:01.084Z,13.65
2022-08-19T04:28:02.935Z,11.95
2022-08-19T04:30:05.476Z,12.07
2022-08-19T04:32:08.685Z,11.13
2022-08-19T04:34:12.936Z,11.68
2022-08-19T04:36:17.715Z,12.43
2022-08-19T04:38:22.941Z,11.43
2022-08-19T04:40:25.861Z,12.25
2022-08-19T04:42:30.691Z,11.68
2022-08-19T04:44:35.226Z,11.85
2022-08-19T04:46:40.066Z,11.77
2022-08-19T04:48:49.556Z,11.90
2022-08-19T04:50:51.478Z,11.73
2022-08-19T04:52:53.159Z,11.63
2022-08-19T04:54:55.117Z,11.85
2022-08-19T04:56:58.277Z,12.75
2022-08-19T04:59:00.243Z,11.25
2022-08-19T05:01:01.929Z,11.77
2022-08-19T05:03:03.603Z,11.77
2022-08-19T05:05:09.642Z,10.00
2022-08-19T05:07:11.408Z,10.10
2022-08-19T05:09:12.968Z,10.93
2022-08-19T05:11:18.555Z,10.40
2022-08-19T05:13:21.441Z,10.15
2022-08-19T05:15:23.021Z,9.50
2022-08-19T05:17:27.674Z,9.48
2022-08-19T05:19:29.946Z,9.07
2022-08-19T05:21:36.243Z,9.60
2022-08-19T05:23:38.234Z,8.65
2022-08-19T05:25:40.778Z,9.43
2022-08-19T05:27:43.287Z,9.23
2022-08-19T05:29:46.221Z,10.00
2022-08-19T05:31:49.512Z,9.10
2022-08-19T05:33:51.097Z,9.13
2022-08-19T05:35:52.701Z,9.10
2022-08-19T05:37:54.876Z,9.63
2022-08-19T05:40:00.608Z,9.38
2022-08-19T05:42:05.475Z,9.35
2022-08-19T05:44:07.010Z,9.57
2022-08-19T05:46:17.827Z,8.98
2022-08-19T05:48:20.179Z,9.05
2022-08-19T05:50:22.232Z,8.98
2022-08-19T05:52:25.698Z,9.43
2022-08-19T05:54:28.043Z,8.60
2022-08-19T05:56:29.775Z,9.25
2022-08-19T05:58:31.515Z,10.10
2022-08-19T06:00:33.074Z,9.63
2022-08-19T06:02:36.003Z,9.63
2022-08-19T06:04:37.617Z,8.98
2022-08-19T06:06:39.124Z,9.85
2022-08-19T06:08:40.811Z,9.90
2022-08-19T06:10:42.740Z,9.55
2022-08-19T06:12:44.270Z,9.85
2022-08-19T06:14:45.830Z,9.52
2022-08-19T06:16:48.089Z,10.32
2022-08-19T06:18:52.173Z,9.48
2022-08-19T06:20:55.911Z,9.57
2022-08-19T06:22:57.838Z,9.70
2022-08-19T06:24:59.412Z,9.77
2022-08-19T06:27:01.902Z,9.90
2022-08-19T06:29:04.795Z,10.20
2022-08-19T06:31:07.659Z,10.20
2022-08-19T06:33:09.243Z,10.18
2022-08-19T06:35:12.288Z,10.98
2022-08-19T06:37:14.866Z,10.88
2022-08-19T06:39:19.639Z,10.57
2022-08-19T06:41:21.244Z,10.82
2022-08-19T06:43:22.788Z,10.27
2022-08-19T06:45:35.447Z,11.30
2022-08-19T06:49:38.879Z,10.10
2022-08-19T06:51:43.661Z,10.40
2022-08-19T06:53:46.459Z,10.45
2022-08-19T06:55:49.177Z,10.55
2022-08-19T06:57:50.852Z,10.93
2022-08-19T06:59:53.021Z,10.48
2022-08-19T07:01:57.139Z,11.57
2022-08-19T07:03:59.204Z,10.20
2022-08-19T07:06:05.389Z,11.02
2022-08-19T07:08:10.270Z,10.60
2022-08-19T07:10:12.129Z,11.73
2022-08-19T07:12:15.118Z,11.27
2022-08-19T07:14:19.395Z,10.90
2022-08-19T07:16:21.672Z,11.50
2022-08-19T07:18:30.852Z,11.32
2022-08-19T07:20:32.441Z,11.13
2022-08-19T07:22:33.988Z,11.02
2022-08-19T07:24:38.368Z,10.90
2022-08-19T07:26:45.348Z,11.52
2022-08-19T07:28:52.811Z,10.70
2022-08-19T07:30:54.821Z,10.60
2022-08-19T07:32:57.485Z,11.95
2022-08-19T07:34:59.089Z,10.65
2022-08-19T07:37:00.734Z,11.15
2022-08-19T07:39:06.091Z,11.65
2022-08-19T07:41:10.893Z,11.38
2022-08-19T07:43:16.979Z,11.45
2022-08-19T07:45:19.712Z,12.75
2022-08-19T07:47:50.423Z,11.43
2022-08-19T07:49:42.808Z,12.02
2022-08-19T07:51:45.173Z,11.85
2022-08-19T07:53:47.641Z,12.02
2022-08-19T07:55:49.886Z,11.63
2022-08-19T07:57:52.737Z,10.68
2022-08-19T07:59:54.278Z,11.60
2022-08-19T08:01:57.235Z,14.55
2022-08-19T08:03:59.170Z,11.45
2022-08-19T08:06:00.733Z,11.80
2022-08-19T08:08:02.479Z,12.50
2022-08-19T08:10:05.604Z,11.82
2022-08-19T08:12:32.911Z,11.85
2022-08-19T08:14:36.796Z,12.38
2022-08-19T08:16:46.800Z,12.63
2022-08-19T08:18:50.563Z,14.27
2022-08-19T08:20:55.466Z,15.50
2022-08-19T08:22:57.048Z,23.88
2022-08-19T08:25:02.161Z,12.05
2022-08-19T08:27:04.080Z,13.43
2022-08-19T08:29:13.212Z,13.23
2022-08-19T08:31:16.114Z,13.77
2022-08-19T08:33:20.049Z,12.05
2022-08-19T08:35:35.209Z,13.48
2022-08-19T08:37:36.920Z,14.32
2022-08-19T08:39:38.658Z,13.25
2022-08-19T08:41:47.543Z,13.98
2022-08-19T08:43:51.830Z,12.82
2022-08-19T08:45:59.919Z,13.02
2022-08-19T08:48:22.357Z,15.00
2022-08-19T08:50:33.003Z,14.02
2022-08-19T08:52:40.105Z,13.02
2022-08-19T08:54:48.979Z,12.80
2022-08-19T08:56:57.569Z,13.02
2022-08-19T08:59:02.782Z,13.65
2022-08-19T09:01:04.365Z,19.38
2022-08-19T09:03:15.217Z,31.50
2022-08-19T09:05:17.075Z,22.35
2022-08-19T09:07:38.036Z,14.30
2022-08-19T09:09:43.039Z,14.15
2022-08-19T09:11:57.671Z,14.35
2022-08-19T09:14:23.529Z,14.75
2022-08-19T09:16:31.561Z,15.15
2022-08-19T09:18:43.787Z,14.40
2022-08-19T09:20:46.503Z,14.18
2022-08-19T09:22:48.517Z,15.02
2022-08-19T09:24:50.316Z,15.40
2022-08-19T09:26:52.520Z,14.35
2022-08-19T09:28:54.613Z,15.68
2022-08-19T09:30:56.177Z,22.02
2022-08-19T09:32:57.922Z,15.02
2022-08-19T09:35:01.255Z,14.88
2022-08-19T09:37:05.133Z,16.27
2022-08-19T09:39:16.192Z,18.20
2022-08-19T09:41:20.015Z,14.30
2022-08-19T09:43:33.018Z,14.25
2022-08-19T09:45:35.699Z,14.02
2022-08-19T09:47:37.788Z,14.25
2022-08-19T09:49:42.530Z,14.43
2022-08-19T09:51:50.788Z,13.95
2022-08-19T09:53:53.050Z,14.27
2022-08-19T09:55:56.461Z,14.95
2022-08-19T09:57:57.989Z,13.40
2022-08-19T09:59:59.594Z,13.32
2022-08-19T10:02:03.957Z,13.55
2022-08-19T10:04:19.763Z,14.80
2022-08-19T10:06:39.922Z,15.35
2022-08-19T10:08:50.178Z,13.48
2022-08-19T10:12:54.082Z,12.77
2022-08-19T10:14:55.621Z,13.57
2022-08-19T10:16:57.607Z,13.00
2022-08-19T10:19:00.916Z,12.75
2022-08-19T10:21:09.290Z,12.80
2022-08-19T10:23:13.244Z,12.73
2022-08-19T10:25:16.199Z,12.75
2022-08-19T10:27:17.764Z,15.30
2022-08-19T10:29:31.841Z,15.65
2022-08-19T10:32:00.761Z,12.80
2022-08-19T10:33:57.824Z,12.18
2022-08-19T10:36:01.017Z,12.45
2022-08-19T10:38:02.686Z,12.57
2022-08-19T10:40:06.591Z,12.63
2022-08-19T10:42:10.401Z,12.70
2022-08-19T10:44:13.987Z,14.45
2022-08-19T10:46:16.715Z,12.98
2022-08-19T10:48:19.577Z,13.00
2022-08-19T10:50:21.189Z,12.50
2022-08-19T10:52:32.482Z,13.90
2022-08-19T10:54:34.650Z,12.70
2022-08-19T10:56:36.806Z,12.80
2022-08-19T10:58:39.779Z,12.88
2022-08-19T11:00:42.017Z,14.73
2022-08-19T11:02:43.744Z,13.13
2022-08-19T11:04:45.491Z,12.57
2022-08-19T11:06:49.355Z,12.48
2022-08-19T11:08:50.888Z,18.75
2022-08-19T11:10:53.738Z,12.90
2022-08-19T11:12:55.347Z,11.68
2022-08-19T11:14:59.115Z,12.85
2022-08-19T11:17:00.887Z,11.25
2022-08-19T11:19:02.527Z,11.73
2022-08-19T11:21:09.445Z,13.13
2022-08-19T11:23:11.011Z,11.45
2022-08-19T11:25:12.849Z,12.02
2022-08-19T11:27:14.402Z,12.00
2022-08-19T11:29:18.888Z,12.10
2022-08-19T11:31:24.870Z,12.30
2022-08-19T11:33:31.176Z,11.90
2022-08-19T11:35:32.762Z,11.48
2022-08-19T11:37:34.374Z,11.02
2022-08-19T11:39:36.823Z,11.55
2022-08-19T11:41:38.490Z,11.35
2022-08-19T11:43:40.048Z,10.60
2022-08-19T11:45:41.597Z,11.15
2022-08-19T11:47:44.593Z,10.73
2022-08-19T11:49:46.894Z,12.07
2022-08-19T11:51:49.416Z,10.38
2022-08-19T11:53:51.823Z,14.00
2022-08-19T11:55:54.476Z,11.20
2022-08-19T11:57:56.166Z,11.65
2022-08-19T11:59:57.863Z,10.35
2022-08-19T12:01:59.465Z,10.65
2022-08-19T12:04:02.493Z,11.00
2022-08-19T12:06:06.091Z,9.95
2022-08-19T12:08:08.679Z,10.43
2022-08-19T12:10:10.875Z,9.63
2022-08-19T12:12:13.238Z,9.30
2022-08-19T12:14:14.970Z,8.75
2022-08-19T12:16:19.312Z,9.90
2022-08-19T12:18:21.074Z,9.07
2022-08-19T12:20:25.153Z,8.55
2022-08-19T12:22:26.721Z,9.13
2022-08-19T12:24:28.398Z,8.45
2022-08-19T12:26:30.841Z,9.23
2022-08-19T12:28:32.653Z,8.60
2022-08-19T12:30:34.195Z,8.73
2022-08-19T12:32:35.842Z,7.93
2022-08-19T12:34:37.402Z,8.25
2022-08-19T12:36:40.277Z,8.32
2022-08-19T12:38:42.528Z,8.30
2022-08-19T12:40:48.727Z,8.30
2022-08-19T12:42:50.301Z,8.32
2022-08-19T12:44:51.840Z,8.65
2022-08-19T12:46:53.856Z,8.00
2022-08-19T12:48:56.184Z,7.80
2022-08-19T12:50:57.790Z,7.85
2022-08-19T12:53:00.744Z,7.93
2022-08-19T12:55:02.532Z,7.70
2022-08-19T12:57:07.204Z,7.55
2022-08-19T12:59:08.791Z,7.38
2022-08-19T13:01:15.734Z,7.57
2022-08-19T13:03:19.133Z,7.55
2022-08-19T13:05:23.856Z,7.95
2022-08-19T13:07:25.590Z,7.30
2022-08-19T13:09:28.476Z,7.20
2022-08-19T13:11:30.171Z,7.47
2022-08-19T13:13:31.726Z,7.38
2022-08-19T13:15:35.292Z,7.45
2022-08-19T13:17:37.421Z,7.97
2022-08-19T13:19:38.987Z,7.63
2022-08-19T13:21:40.511Z,7.65
2022-08-19T13:23:44.185Z,7.20
2022-08-19T13:25:56.741Z,7.50
2022-08-19T13:27:58.387Z,7.13
2022-08-19T13:30:00.330Z,7.43
2022-08-19T13:32:01.909Z,8.02
2022-08-19T13:34:05.438Z,8.00
2022-08-19T13:36:07.418Z,8.40
2022-08-19T13:38:11.869Z,8.02
2022-08-19T13:40:15.734Z,8.13
2022-08-19T13:42:18.689Z,8.10
2022-08-19T13:44:20.889Z,9.30
2022-08-19T13:46:22.487Z,8.57
2022-08-19T13:48:25.020Z,9.50
2022-08-19T13:50:28.690Z,8.93
2022-08-19T13:52:31.114Z,9.10
2022-08-19T13:54:32.737Z,8.38
2022-08-19T13:56:34.309Z,8.90
2022-08-19T13:58:38.624Z,8.20
2022-08-19T14:00:43.711Z,8.90
2022-08-19T14:02:46.896Z,9.25
2022-08-19T14:04:48.514Z,9.88
2022-08-19T14:06:50.101Z,8.93
2022-08-19T14:08:51.898Z,9.15
2022-08-19T14:10:53.430Z,8.57
2022-08-19T14:12:55.932Z,8.13
2022-08-19T14:14:58.936Z,8.15
2022-08-19T14:17:00.457Z,8.57
2022-08-19T14:19:01.985Z,8.38
2022-08-19T14:21:03.992Z,8.27
2022-08-19T14:23:05.552Z,8.32
2022-08-19T14:25:09.513Z,8.23
2022-08-19T14:27:11.120Z,8.73
2022-08-19T14:29:12.654Z,8.55
2022-08-19T14:31:17.183Z,8.32
2022-08-19T14:33:18.731Z,8.75
2022-08-19T14:35:21.321Z,8.88
2022-08-19T14:37:22.843Z,9.30
2022-08-19T14:39:26.596Z,8.90
2022-08-19T14:41:28.585Z,9.25
2022-08-19T14:43:30.090Z,8.75
2022-08-19T14:45:34.769Z,7.93
2022-08-19T14:47:39.963Z,8.18
2022-08-19T14:49:44.849Z,9.00
2022-08-19T14:51:49.943Z,9.02
2022-08-19T14:53:51.901Z,8.30
2022-08-19T14:55:53.476Z,7.78
2022-08-19T14:57:55.219Z,9.00
2022-08-19T14:59:59.912Z,7.85
2022-08-19T15:02:20.206Z,9.20
2022-08-19T15:04:24.400Z,8.30
2022-08-19T15:06:26.298Z,8.52
2022-08-19T15:08:29.503Z,8.40
2022-08-19T15:10:31.357Z,8.45
2022-08-19T15:12:33.112Z,8.05
2022-08-19T15:14:37.834Z,8.10
2022-08-19T15:16:39.430Z,7.78
2022-08-19T15:18:41.518Z,8.23
2022-08-19T15:20:44.714Z,9.52
2022-08-19T15:22:48.660Z,11.30
2022-08-19T15:24:50.179Z,10.90
2022-08-19T15:26:52.622Z,12.85
2022-08-19T15:28:54.685Z,19.80
2022-08-19T15:30:56.268Z,12.43
2022-08-19T15:32:58.796Z,13.88
2022-08-19T15:35:00.377Z,16.42
2022-08-19T15:37:03.456Z,13.05
2022-08-19T15:39:06.319Z,13.57
2022-08-19T15:41:17.118Z,11.45
2022-08-19T15:43:19.983Z,11.77
2022-08-19T15:45:22.540Z,11.77
2022-08-19T15:47:24.094Z,12.63
2022-08-19T15:49:25.695Z,11.52
2022-08-19T15:51:29.634Z,11.93
2022-08-19T15:53:32.838Z,10.68
2022-08-19T15:55:43.682Z,10.85
2022-08-19T15:57:45.227Z,12.40
2022-08-19T15:59:47.763Z,15.23
2022-08-19T16:01:49.487Z,10.75
2022-08-19T16:03:52.780Z,10.98
2022-08-19T16:05:54.310Z,9.80
2022-08-19T16:07:56.299Z,10.73
2022-08-19T16:09:59.243Z,10.38
2022-08-19T16:12:21.216Z,10.05
2022-08-19T16:14:22.837Z,8.68
2022-08-19T16:16:31.097Z,13.70
2022-08-19T16:18:35.552Z,12.45
2022-08-19T16:20:37.087Z,8.55
2022-08-19T16:22:39.249Z,10.55
2022-08-19T16:24:40.964Z,8.63
2022-08-19T16:26:44.997Z,8.73
2022-08-19T16:28:47.464Z,8.23
2022-08-19T16:30:50.998Z,8.73
2022-08-19T16:32:52.737Z,11.50
2022-08-19T16:34:54.275Z,9.80
2022-08-19T16:36:55.863Z,9.13
2022-08-19T16:38:57.456Z,8.27
2022-08-19T16:40:59.429Z,7.78
2022-08-19T16:43:02.692Z,7.50
2022-08-19T16:45:05.215Z,8.27
2022-08-19T16:47:06.950Z,8.02
2022-08-19T16:49:09.258Z,7.13
2022-08-19T16:51:12.124Z,7.22
2022-08-19T16:53:13.851Z,6.38
2022-08-19T16:55:15.773Z,6.22
2022-08-19T16:57:17.341Z,6.57
2022-08-19T16:59:21.585Z,6.72
2022-08-19T17:01:23.381Z,10.32
2022-08-19T17:03:35.659Z,5.85
2022-08-19T17:05:42.489Z,6.82
2022-08-19T17:07:44.048Z,8.50
2022-08-19T17:09:45.583Z,7.22
2022-08-19T17:11:48.133Z,7.00
2022-08-19T17:13:50.496Z,6.03
2022-08-19T17:15:53.491Z,6.97
2022-08-19T17:17:59.562Z,9.10
2022-08-19T17:20:02.532Z,6.25
2022-08-19T17:22:04.213Z,7.57
2022-08-19T17:24:06.776Z,6.38
2022-08-19T17:26:08.353Z,6.38
2022-08-19T17:28:20.780Z,5.85
2022-08-19T17:30:23.500Z,6.43
2022-08-19T17:32:26.545Z,6.53
2022-08-19T17:34:28.164Z,6.30
2022-08-19T17:36:31.918Z,6.47
2022-08-19T17:38:33.908Z,8.30
2022-08-19T17:40:35.693Z,5.85
2022-08-19T17:42:38.254Z,5.32
2022-08-19T17:44:39.792Z,5.55
2022-08-19T17:46:41.410Z,5.65
2022-08-19T17:48:47.364Z,5.72
2022-08-19T17:50:51.217Z,5.75
2022-08-19T17:52:53.180Z,5.68
2022-08-19T17:54:54.787Z,6.18
2022-08-19T17:56:56.383Z,6.43
2022-08-19T17:59:00.520Z,5.63
2022-08-19T18:01:03.095Z,6.32
2022-08-19T18:03:06.302Z,6.03
2022-08-19T18:05:09.979Z,6.10
2022-08-19T18:07:11.789Z,5.93
2022-08-19T18:09:13.688Z,6.60
2022-08-19T18:11:16.537Z,13.40
2022-08-19T18:13:18.164Z,16.88
2022-08-19T18:15:21.053Z,6.93
2022-08-19T18:17:22.605Z,6.40
2022-08-19T18:19:25.356Z,7.13
2022-08-19T18:23:45.533Z,7.18
2022-08-19T18:25:47.518Z,6.75
2022-08-19T18:27:49.144Z,6.30
2022-08-19T18:29:50.895Z,6.60
2022-08-19T18:31:52.447Z,7.22
2022-08-19T18:33:54.278Z,7.22
2022-08-19T18:35:55.867Z,8.02
2022-08-19T18:38:01.188Z,7.57
2022-08-19T18:40:03.830Z,8.00
2022-08-19T18:42:05.858Z,7.88
2022-08-19T18:44:07.518Z,7.55
2022-08-19T18:46:09.225Z,8.18
2022-08-19T18:48:24.249Z,10.07
2022-08-19T18:50:29.552Z,7.68
2022-08-19T18:52:31.152Z,10.00
2022-08-19T18:54:34.534Z,10.73
2022-08-19T18:56:36.198Z,10.90
2022-08-19T18:58:38.602Z,10.82
2022-08-19T19:00:40.244Z,11.18
2022-08-19T19:02:41.993Z,12.23
2022-08-19T19:04:44.118Z,11.70
2022-08-19T19:06:46.215Z,11.60
2022-08-19T19:08:48.583Z,13.82
2022-08-19T19:10:51.506Z,12.68
2022-08-19T19:12:53.040Z,12.98
2022-08-19T19:14:54.645Z,12.48
2022-08-19T19:16:56.478Z,14.30
2022-08-19T19:19:00.583Z,14.57
2022-08-19T19:21:02.201Z,13.52
2022-08-19T19:23:04.270Z,13.77
2022-08-19T19:25:06.237Z,13.10
2022-08-19T19:27:09.637Z,13.77
2022-08-19T19:29:11.826Z,35.58
2022-08-19T19:31:16.022Z,15.38
2022-08-19T19:33:17.624Z,14.27
2022-08-19T19:35:19.174Z,14.30
2022-08-19T19:37:20.966Z,12.80
2022-08-19T19:39:45.447Z,14.85
2022-08-19T19:41:44.404Z,17.27
2022-08-19T19:43:47.407Z,13.60
2022-08-19T19:45:58.495Z,16.42
2022-08-19T19:48:00.276Z,15.20
2022-08-19T19:50:14.361Z,14.00
2022-08-19T19:52:17.074Z,14.95
2022-08-19T19:54:23.343Z,14.57
2022-08-19T19:56:25.432Z,12.43
2022-08-19T19:58:28.940Z,14.70
2022-08-19T20:00:32.377Z,14.13
2022-08-19T20:02:34.011Z,14.13
2022-08-19T20:04:35.591Z,14.18
2022-08-19T20:06:37.229Z,14.50
2022-08-19T20:08:39.333Z,14.95
2022-08-19T20:10:42.742Z,12.60
2022-08-19T20:12:44.312Z,14.32
2022-08-19T20:14:45.879Z,14.93
2022-08-19T20:16:50.599Z,14.43
2022-08-19T20:18:52.203Z,17.35
2022-08-19T20:20:57.423Z,15.65
2022-08-19T20:22:59.015Z,13.73
2022-08-19T20:25:00.701Z,12.50
2022-08-19T20:27:04.263Z,12.93
2022-08-19T20:29:13.319Z,13.90
2022-08-19T20:31:25.390Z,12.10
2022-08-19T20:33:32.708Z,12.20
2022-08-19T20:35:36.683Z,12.60
2022-08-19T20:37:38.274Z,12.98
2022-08-19T20:39:39.835Z,12.15
2022-08-19T20:41:41.434Z,12.40
2022-08-19T20:43:44.380Z,12.18
2022-08-19T20:45:48.647Z,11.65
2022-08-19T20:47:50.210Z,12.27
2022-08-19T20:49:53.132Z,11.63
2022-08-19T20:51:56.501Z,12.15
2022-08-19T20:53:58.712Z,11.40
2022-08-19T20:56:00.544Z,12.82
2022-08-19T20:58:02.203Z,12.43
2022-08-19T21:00:06.615Z,12.75
2022-08-19T21:02:08.180Z,12.85
2022-08-19T21:04:09.717Z,12.45
2022-08-19T21:06:14.320Z,11.73
2022-08-19T21:08:17.038Z,12.25
2022-08-19T21:10:18.684Z,11.52
2022-08-19T21:12:20.220Z,11.85
2022-08-19T21:14:21.788Z,14.05
2022-08-19T21:16:23.338Z,12.23
2022-08-19T21:18:25.143Z,11.80
2022-08-19T21:20:26.892Z,11.98
2022-08-19T21:22:29.788Z,11.77
2022-08-19T21:24:31.892Z,12.40
2022-08-19T21:26:33.471Z,12.60
2022-08-19T21:28:36.438Z,12.13
2022-08-19T21:30:40.170Z,11.98
2022-08-19T21:32:41.725Z,11.93
2022-08-19T21:34:46.272Z,10.95
2022-08-19T21:36:48.218Z,12.13
2022-08-19T21:38:51.084Z,12.52
2022-08-19T21:40:52.670Z,12.18
2022-08-19T21:42:54.624Z,11.88
2022-08-19T21:44:56.156Z,11.45
2022-08-19T21:46:57.677Z,10.82
2022-08-19T21:48:59.216Z,12.40
2022-08-19T21:51:00.947Z,12.75
2022-08-19T21:53:02.554Z,11.48
2022-08-19T21:55:07.384Z,11.63
2022-08-19T21:57:10.378Z,11.73
2022-08-19T21:59:12.601Z,12.25
2022-08-19T22:01:14.239Z,11.82
2022-08-19T22:03:17.200Z,11.55
2022-08-19T22:05:19.554Z,11.23
2022-08-19T22:07:22.249Z,11.73
2022-08-19T22:09:23.787Z,11.80
2022-08-19T22:11:27.635Z,15.15
2022-08-19T22:13:35.918Z,11.55
2022-08-19T22:15:40.822Z,11.65
2022-08-19T22:17:43.036Z,11.65
2022-08-19T22:19:44.596Z,12.02
2022-08-19T22:21:46.522Z,10.45
2022-08-19T22:23:48.299Z,14.85
2022-08-19T22:25:49.828Z,11.32
2022-08-19T22:27:53.256Z,10.63
2022-08-19T22:29:58.427Z,9.93
2022-08-19T22:32:00.697Z,13.73
2022-08-19T22:34:22.199Z,10.18
2022-08-19T22:36:23.802Z,10.25
2022-08-19T22:38:26.494Z,11.07
2022-08-19T22:40:29.708Z,10.65
2022-08-19T22:42:31.922Z,10.68
2022-08-19T22:44:36.114Z,10.20
2022-08-19T22:46:37.785Z,11.13
2022-08-19T22:48:39.344Z,11.95
2022-08-19T22:50:42.946Z,11.05
2022-08-19T22:52:52.129Z,10.00
2022-08-19T22:54:56.132Z,8.82
2022-08-19T22:56:57.637Z,9.93
2022-08-19T22:58:59.269Z,9.75
2022-08-19T23:01:03.067Z,10.27
2022-08-19T23:03:04.682Z,10.27
2022-08-19T23:05:08.472Z,10.05
2022-08-19T23:07:09.985Z,10.73
2022-08-19T23:09:16.978Z,9.90
2022-08-19T23:11:18.756Z,10.95
2022-08-19T23:13:20.296Z,10.73
2022-08-19T23:15:25.169Z,10.40
2022-08-19T23:17:28.134Z,10.60
2022-08-19T23:19:29.673Z,11.07
2022-08-19T23:21:31.229Z,11.10
2022-08-19T23:23:32.911Z,10.30
2022-08-19T23:25:36.336Z,10.45
2022-08-19T23:27:37.938Z,12.57
2022-08-19T23:29:39.537Z,11.38
2022-08-19T23:31:41.060Z,11.35
2022-08-19T23:33:51.597Z,11.43
2022-08-19T23:35:55.907Z,11.88
2022-08-19T23:37:57.542Z,11.05
2022-08-19T23:39:59.143Z,11.98
2022-08-19T23:42:00.800Z,11.95
2022-08-19T23:44:02.613Z,12.73
2022-08-19T23:46:10.457Z,12.38
2022-08-19T23:48:12.442Z,12.57
2022-08-19T23:50:15.638Z,12.75
2022-08-19T23:52:17.206Z,11.90
2022-08-19T23:54:18.817Z,11.48
2022-08-19T23:56:20.340Z,11.40
2022-08-19T23:58:22.622Z,11.13
